Date,TemperatureHighF,TemperatureAvgF,TemperatureLowF,DewpointHighF,DewpointAvgF,DewpointLowF,HumidityHigh,HumidityAvg,HumidityLow,PressureMaxIn,PressureMinIn,WindSpeedMaxMPH,WindSpeedAvgMPH,GustSpeedMaxMPH,PrecipitationSumIn
2013-3-1,79.0,71.1,64.6,62.1,57.3,54.5,73,62,47,30.14,30.02,17,4,21,0.00
2013-3-2,78.8,70.4,63.9,63.0,57.6,53.2,79,65,44,30.17,30.01,23,5,25,0.00
2013-3-3,78.3,70.1,62.2,61.2,57.9,53.4,78,66,50,30.17,30.06,22,5,25,0.00
2013-3-4,78.1,69.7,63.1,63.3,58.4,53.8,78,68,51,30.17,30.06,23,4,30,0.00
2013-3-5,77.4,69.9,63.0,64.2,58.9,52.3,78,68,52,30.15,30.04,19,4,21,0.00
2013-3-6,77.2,69.9,62.6,64.6,61.1,55.6,83,74,61,30.13,30.04,15,3,16,0.00
2013-3-7,77.0,70.3,64.4,67.3,62.4,57.9,84,76,67,30.09,29.97,14,3,16,0.00
2013-3-8,77.0,71.0,64.6,67.3,62.1,55.9,80,73,62,30.04,29.89,13,3,13,0.00
2013-3-9,78.6,73.0,66.7,68.5,65.5,62.8,92,78,67,29.98,29.88,27,7,28,0.09
2013-3-10,79.2,71.5,66.0,69.4,65.5,60.8,92,82,69,30.03,29.89,21,5,23,0.02
2013-3-11,77.2,71.9,66.7,67.8,64.8,61.3,86,79,69,30.06,29.95,14,3,14,0.02
2013-3-12,77.7,71.9,68.0,67.6,63.5,59.0,84,75,64,30.08,29.96,16,4,18,0.00
2013-3-13,78.3,71.2,66.6,63.7,60.4,56.5,77,69,58,30.09,29.97,20,4,23,0.00
2013-3-14,77.4,71.5,66.4,68.0,62.7,58.3,81,74,59,30.09,29.96,9,2,10,0.00
2013-3-15,76.3,73.4,70.9,66.4,63.3,58.6,80,71,63,29.99,29.90,11,4,13,0.06
2013-3-16,75.7,70.4,65.5,63.3,60.0,55.0,90,70,54,30.01,29.90,18,4,20,0.01
2013-3-17,75.9,70.0,65.8,60.4,56.3,52.2,70,62,49,30.04,29.92,18,5,21,0.00
2013-3-18,76.1,68.8,61.0,61.5,56.7,50.7,74,66,55,30.04,29.92,18,4,19,0.00
2013-3-19,79.5,70.5,61.2,64.2,58.3,51.6,77,66,42,30.03,29.93,15,3,17,0.00
2013-3-20,80.6,73.1,65.8,67.8,62.0,55.0,79,69,44,30.06,29.96,15,3,18,0.00
2013-3-21,79.2,74.3,67.1,70.2,65.7,58.3,84,75,63,30.06,29.96,11,3,12,0.00
2013-3-22,78.1,73.9,70.9,70.7,66.1,61.3,82,77,71,30.04,29.93,11,2,13,0.00
2013-3-23,77.2,72.2,69.1,68.5,65.9,62.6,90,81,71,30.02,29.91,16,3,19,0.00
2013-3-24,76.8,71.9,68.4,68.7,66.2,64.0,91,82,71,30.03,29.92,19,3,20,0.00
2013-3-25,80.4,73.0,66.0,69.3,65.1,59.7,83,76,64,30.02,29.92,15,4,18,0.00
2013-3-26,78.6,72.6,66.9,68.4,65.2,61.2,85,78,66,30.04,29.94,17,3,19,0.00
2013-3-27,78.8,72.2,67.6,68.5,64.9,61.2,85,78,67,30.03,29.92,19,4,21,0.00
2013-3-28,80.4,72.4,65.7,67.5,62.9,58.8,82,73,58,30.04,29.91,23,4,28,0.00
2013-3-29,79.3,70.0,64.8,67.3,63.7,58.3,91,81,62,30.05,29.95,21,4,24,0.00
2013-3-30,75.6,70.6,66.2,68.2,64.1,56.8,92,80,66,30.06,29.96,15,3,16,0.01
2013-3-31,75.6,70.0,65.7,61.3,56.5,53.4,84,63,49,30.04,29.95,20,6,22,0.01